createdAt,value
2019-02-27T00:00:45.801Z,1021.35
2019-02-27T00:01:49.679Z,1021.33
2019-02-27T00:02:45.788Z,1021.35
2019-02-27T00:03:45.779Z,1021.36
2019-02-27T00:04:45.772Z,1021.39
2019-02-27T00:05:45.765Z,1021.36
2019-02-27T00:06:47.647Z,1021.36
2019-02-27T00:07:45.780Z,1021.32
2019-02-27T00:08:45.748Z,1021.34
2019-02-27T00:09:45.738Z,1021.31
2019-02-27T00:10:45.732Z,1021.30
2019-02-27T00:11:46.705Z,1021.32
2019-02-27T00:12:45.717Z,1021.30
2019-02-27T00:13:45.709Z,1021.30
2019-02-27T00:14:45.702Z,1021.34
2019-02-27T00:15:45.694Z,1021.31
2019-02-27T00:16:45.688Z,1021.29
2019-02-27T00:17:45.683Z,1021.26
2019-02-27T00:18:45.674Z,1021.24
2019-02-27T00:19:45.667Z,1021.24
2019-02-27T00:20:45.660Z,1021.24
2019-02-27T00:21:45.654Z,1021.19
2019-02-27T00:22:47.907Z,1021.19
2019-02-27T00:23:45.642Z,1021.18
2019-02-27T00:24:45.634Z,1021.18
2019-02-27T00:25:45.630Z,1021.17
2019-02-27T00:26:45.621Z,1021.15
2019-02-27T00:27:48.736Z,1021.16
2019-02-27T00:28:45.605Z,1021.19
2019-02-27T00:29:45.598Z,1021.14
2019-02-27T00:30:45.590Z,1021.14
2019-02-27T00:31:46.152Z,1021.10
2019-02-27T00:32:45.580Z,1021.13
2019-02-27T00:33:45.570Z,1021.10
2019-02-27T00:34:45.564Z,1021.12
2019-02-27T00:35:45.556Z,1021.08
2019-02-27T00:36:45.712Z,1021.08
2019-02-27T00:37:45.555Z,1021.05
2019-02-27T00:38:45.535Z,1021.05
2019-02-27T00:39:45.533Z,1021.04
2019-02-27T00:40:45.522Z,1021.05
2019-02-27T00:41:46.052Z,1021.00
2019-02-27T00:42:45.506Z,1020.98
2019-02-27T00:43:45.501Z,1021.04
2019-02-27T00:44:45.494Z,1021.00
2019-02-27T00:45:45.487Z,1020.98
2019-02-27T00:46:46.523Z,1020.97
2019-02-27T00:47:45.470Z,1020.98
2019-02-27T00:48:45.465Z,1020.90
2019-02-27T00:49:45.460Z,1020.93
2019-02-27T00:50:45.457Z,1020.95
2019-02-27T00:51:45.504Z,1020.92
2019-02-27T00:52:45.436Z,1020.88
2019-02-27T00:53:45.429Z,1020.89
2019-02-27T00:54:45.424Z,1020.92
2019-02-27T00:55:45.415Z,1020.89
2019-02-27T00:56:45.676Z,1020.91
2019-02-27T00:57:45.401Z,1020.91
2019-02-27T00:58:45.394Z,1020.90
2019-02-27T00:59:45.387Z,1020.86
2019-02-27T01:00:45.378Z,1020.86
2019-02-27T01:01:47.217Z,1020.88
2019-02-27T01:02:45.368Z,1020.82
2019-02-27T01:03:45.360Z,1020.78
2019-02-27T01:04:45.350Z,1020.82
2019-02-27T01:05:45.344Z,1020.79
2019-02-27T01:06:47.452Z,1020.79
2019-02-27T01:07:45.329Z,1020.82
2019-02-27T01:08:45.322Z,1020.76
2019-02-27T01:09:45.316Z,1020.76
2019-02-27T01:10:45.883Z,1020.75
2019-02-27T01:11:45.301Z,1020.72
2019-02-27T01:12:45.295Z,1020.73
2019-02-27T01:13:45.292Z,1020.65
2019-02-27T01:14:45.282Z,1020.65
2019-02-27T01:15:45.274Z,1020.63
2019-02-27T01:16:47.630Z,1020.62
2019-02-27T01:17:45.258Z,1020.63
2019-02-27T01:18:45.252Z,1020.61
2019-02-27T01:19:45.244Z,1020.60
2019-02-27T01:20:46.427Z,1020.61
2019-02-27T01:21:45.229Z,1020.58
2019-02-27T01:22:45.223Z,1020.57
2019-02-27T01:23:45.229Z,1020.54
2019-02-27T01:24:45.209Z,1020.59
2019-02-27T01:25:45.203Z,1020.56
2019-02-27T01:26:45.199Z,1020.55
2019-02-27T01:27:45.188Z,1020.54
2019-02-27T01:28:45.608Z,1020.52
2019-02-27T01:29:45.173Z,1020.55
2019-02-27T01:30:45.165Z,1020.55
2019-02-27T01:31:45.156Z,1020.53
2019-02-27T01:32:45.151Z,1020.49
2019-02-27T01:33:45.146Z,1020.50
2019-02-27T01:34:45.154Z,1020.51
2019-02-27T01:35:45.129Z,1020.46
2019-02-27T01:36:45.123Z,1020.45
2019-02-27T01:37:45.115Z,1020.46
2019-02-27T01:38:45.110Z,1020.44
2019-02-27T01:39:45.102Z,1020.43
2019-02-27T01:40:45.095Z,1020.42
2019-02-27T01:41:45.086Z,1020.41
2019-02-27T01:42:45.081Z,1020.37
2019-02-27T01:43:45.072Z,1020.39
2019-02-27T01:44:46.543Z,1020.37
2019-02-27T01:45:45.057Z,1020.34
2019-02-27T01:46:45.051Z,1020.37
2019-02-27T01:47:45.042Z,1020.36
2019-02-27T01:48:45.036Z,1020.34
2019-02-27T01:49:48.979Z,1020.32
2019-02-27T01:50:45.023Z,1020.25
2019-02-27T01:51:45.012Z,1020.25
2019-02-27T01:52:45.009Z,1020.25
2019-02-27T01:53:44.999Z,1020.27
2019-02-27T01:54:46.087Z,1020.24
2019-02-27T01:55:44.984Z,1020.23
2019-02-27T01:56:44.976Z,1020.23
2019-02-27T01:57:44.970Z,1020.23
2019-02-27T01:58:44.962Z,1020.24
2019-02-27T01:59:44.954Z,1020.23
2019-02-27T02:00:44.948Z,1020.21
2019-02-27T02:01:44.941Z,1020.21
2019-02-27T02:02:44.933Z,1020.19
2019-02-27T02:03:47.285Z,1020.15
2019-02-27T02:04:44.919Z,1020.18
2019-02-27T02:05:44.911Z,1020.20
2019-02-27T02:06:44.913Z,1020.19
2019-02-27T02:07:44.900Z,1020.12
2019-02-27T02:08:48.023Z,1020.18
2019-02-27T02:09:44.882Z,1020.12
2019-02-27T02:10:44.875Z,1020.13
2019-02-27T02:11:44.867Z,1020.08
2019-02-27T02:12:44.859Z,1020.04
2019-02-27T02:13:48.036Z,1019.99
2019-02-27T02:14:44.846Z,1019.98
2019-02-27T02:15:44.837Z,1019.94
2019-02-27T02:16:44.831Z,1019.94
2019-02-27T02:17:44.823Z,1019.94
2019-02-27T02:18:45.781Z,1019.92
2019-02-27T02:19:44.808Z,1019.88
2019-02-27T02:20:44.802Z,1019.82
2019-02-27T02:21:44.797Z,1019.87
2019-02-27T02:22:44.787Z,1019.86
2019-02-27T02:23:44.987Z,1019.80
2019-02-27T02:24:44.771Z,1019.84
2019-02-27T02:25:44.763Z,1019.79
2019-02-27T02:26:44.757Z,1019.80
2019-02-27T02:27:44.749Z,1019.77
2019-02-27T02:28:48.063Z,1019.77
2019-02-27T02:29:44.735Z,1019.76
2019-02-27T02:30:44.728Z,1019.69
2019-02-27T02:31:44.720Z,1019.76
2019-02-27T02:32:44.712Z,1019.67
2019-02-27T02:33:44.706Z,1019.67
2019-02-27T02:34:44.697Z,1019.68
2019-02-27T02:35:49.606Z,1019.61
2019-02-27T02:36:44.693Z,1019.61
2019-02-27T02:37:44.678Z,1019.64
2019-02-27T02:38:44.668Z,1019.59
2019-02-27T02:39:44.663Z,1019.60
2019-02-27T02:40:44.657Z,1019.59
2019-02-27T02:41:48.039Z,1019.57
2019-02-27T02:42:44.640Z,1019.57
2019-02-27T02:43:44.631Z,1019.53
2019-02-27T02:44:44.627Z,1019.55
2019-02-27T02:45:44.627Z,1019.53
2019-02-27T02:46:45.343Z,1019.48
2019-02-27T02:47:44.601Z,1019.48
2019-02-27T02:48:44.593Z,1019.45
2019-02-27T02:49:44.586Z,1019.41
2019-02-27T02:50:44.584Z,1019.40
2019-02-27T02:51:44.576Z,1019.35
2019-02-27T02:52:44.564Z,1019.39
2019-02-27T02:53:44.557Z,1019.32
2019-02-27T02:54:44.552Z,1019.34
2019-02-27T02:55:47.518Z,1019.31
2019-02-27T02:56:44.552Z,1019.33
2019-02-27T02:57:44.536Z,1019.30
2019-02-27T02:58:48.439Z,1019.27
2019-02-27T02:59:44.518Z,1019.31
2019-02-27T03:00:44.504Z,1019.24
2019-02-27T03:01:45.647Z,1019.23
2019-02-27T03:02:44.490Z,1019.20
2019-02-27T03:03:44.483Z,1019.19
2019-02-27T03:04:47.854Z,1019.16
2019-02-27T03:05:44.466Z,1019.20
2019-02-27T03:06:44.461Z,1019.16
2019-02-27T03:07:45.525Z,1019.13
2019-02-27T03:08:44.445Z,1019.12
2019-02-27T03:09:44.436Z,1019.10
2019-02-27T03:10:44.430Z,1019.13
2019-02-27T03:11:44.422Z,1019.11
2019-02-27T03:12:44.417Z,1019.08
2019-02-27T03:13:44.409Z,1019.10
2019-02-27T03:14:44.402Z,1019.07
2019-02-27T03:15:44.395Z,1019.09
2019-02-27T03:16:44.386Z,1019.08
2019-02-27T03:17:44.380Z,1019.05
2019-02-27T03:18:44.370Z,1019.02
2019-02-27T03:19:44.360Z,1018.98
2019-02-27T03:20:44.356Z,1018.99
2019-02-27T03:21:44.347Z,1018.96
2019-02-27T03:22:44.338Z,1018.98
2019-02-27T03:23:47.728Z,1018.98
2019-02-27T03:24:44.323Z,1018.98
2019-02-27T03:25:44.318Z,1018.94
2019-02-27T03:26:44.311Z,1018.90
2019-02-27T03:27:44.300Z,1018.88
2019-02-27T03:28:44.293Z,1018.87
2019-02-27T03:29:44.286Z,1018.87
2019-02-27T03:30:44.288Z,1018.83
2019-02-27T03:31:44.291Z,1018.83
2019-02-27T03:32:44.274Z,1018.82
2019-02-27T03:33:44.256Z,1018.82
2019-02-27T03:34:50.207Z,1018.79
2019-02-27T03:35:44.241Z,1018.79
2019-02-27T03:36:44.235Z,1018.77
2019-02-27T03:37:48.011Z,1018.76
2019-02-27T03:38:44.219Z,1018.73
2019-02-27T03:39:44.211Z,1018.72
2019-02-27T03:40:45.015Z,1018.75
2019-02-27T03:41:44.198Z,1018.76
2019-02-27T03:42:44.187Z,1018.75
2019-02-27T03:43:46.087Z,1018.73
2019-02-27T03:44:44.178Z,1018.75
2019-02-27T03:45:44.166Z,1018.72
2019-02-27T03:46:44.159Z,1018.75
2019-02-27T03:47:44.150Z,1018.74
2019-02-27T03:48:44.144Z,1018.71
2019-02-27T03:49:44.133Z,1018.73
2019-02-27T03:50:49.478Z,1018.74
2019-02-27T03:51:44.123Z,1018.70
2019-02-27T03:52:44.111Z,1018.69
2019-02-27T03:53:46.568Z,1018.76
2019-02-27T03:54:44.098Z,1018.69
2019-02-27T03:55:44.092Z,1018.66
2019-02-27T03:56:44.809Z,1018.69
2019-02-27T03:57:44.075Z,1018.68
2019-02-27T03:58:44.066Z,1018.66
2019-02-27T03:59:44.069Z,1018.68
2019-02-27T04:00:44.052Z,1018.65
2019-02-27T04:01:44.047Z,1018.65
2019-02-27T04:02:44.034Z,1018.62
2019-02-27T04:03:44.029Z,1018.61
2019-02-27T04:04:44.020Z,1018.64
2019-02-27T04:05:46.307Z,1018.60
2019-02-27T04:06:44.005Z,1018.57
2019-02-27T04:07:44.007Z,1018.60
2019-02-27T04:08:44.956Z,1018.59
2019-02-27T04:09:43.979Z,1018.57
2019-02-27T04:10:43.973Z,1018.56
2019-02-27T04:11:43.964Z,1018.56
2019-02-27T04:12:43.958Z,1018.58
2019-02-27T04:13:43.950Z,1018.57
2019-02-27T04:14:43.941Z,1018.58
2019-02-27T04:15:43.933Z,1018.58
2019-02-27T04:16:43.927Z,1018.62
2019-02-27T04:17:43.916Z,1018.58
2019-02-27T04:18:43.913Z,1018.61
2019-02-27T04:19:43.901Z,1018.59
2019-02-27T04:20:49.657Z,1018.57
2019-02-27T04:21:43.887Z,1018.55
2019-02-27T04:22:43.881Z,1018.54
2019-02-27T04:23:47.783Z,1018.55
2019-02-27T04:24:43.864Z,1018.55
2019-02-27T04:25:43.858Z,1018.55
2019-02-27T04:26:43.850Z,1018.56
2019-02-27T04:27:43.838Z,1018.52
2019-02-27T04:28:43.830Z,1018.49
2019-02-27T04:29:43.823Z,1018.53
2019-02-27T04:30:43.867Z,1018.50
2019-02-27T04:31:43.810Z,1018.57
2019-02-27T04:32:47.678Z,1018.55
2019-02-27T04:33:43.793Z,1018.54
2019-02-27T04:34:43.784Z,1018.55
2019-02-27T04:35:43.777Z,1018.55
2019-02-27T04:36:46.935Z,1018.54
2019-02-27T04:37:43.763Z,1018.53
2019-02-27T04:38:43.754Z,1018.53
2019-02-27T04:39:43.744Z,1018.56
2019-02-27T04:40:44.141Z,1018.54
2019-02-27T04:41:43.730Z,1018.55
2019-02-27T04:42:43.722Z,1018.52
2019-02-27T04:43:43.714Z,1018.51
2019-02-27T04:44:43.706Z,1018.53
2019-02-27T04:45:43.911Z,1018.57
2019-02-27T04:46:43.690Z,1018.51
2019-02-27T04:47:43.683Z,1018.54
2019-02-27T04:48:43.674Z,1018.52
2019-02-27T04:49:43.667Z,1018.52
2019-02-27T04:50:44.174Z,1018.52
2019-02-27T04:51:43.656Z,1018.51
2019-02-27T04:52:43.643Z,1018.54
2019-02-27T04:53:43.636Z,1018.52
2019-02-27T04:54:43.626Z,1018.50
2019-02-27T04:55:43.620Z,1018.49
2019-02-27T04:56:43.611Z,1018.50
2019-02-27T04:57:43.608Z,1018.48
2019-02-27T04:58:43.731Z,1018.48
2019-02-27T04:59:43.589Z,1018.45
2019-02-27T05:00:43.579Z,1018.48
2019-02-27T05:01:43.572Z,1018.48
2019-02-27T05:02:43.566Z,1018.49
2019-02-27T05:03:43.557Z,1018.49
2019-02-27T05:04:43.550Z,1018.49
2019-02-27T05:05:43.539Z,1018.47
2019-02-27T05:06:46.873Z,1018.45
2019-02-27T05:07:43.527Z,1018.47
2019-02-27T05:08:43.517Z,1018.47
2019-02-27T05:09:43.508Z,1018.39
2019-02-27T05:10:43.500Z,1018.43
2019-02-27T05:11:47.487Z,1018.40
2019-02-27T05:12:47.809Z,1018.38
2019-02-27T05:13:43.477Z,1018.38
2019-02-27T05:14:43.469Z,1018.33
2019-02-27T05:15:43.463Z,1018.36
2019-02-27T05:16:46.978Z,1018.37
2019-02-27T05:17:43.444Z,1018.37
2019-02-27T05:18:43.438Z,1018.32
2019-02-27T05:19:43.732Z,1018.32
2019-02-27T05:20:45.743Z,1018.34
2019-02-27T05:21:43.413Z,1018.35
2019-02-27T05:22:43.404Z,1018.34
2019-02-27T05:23:43.397Z,1018.38
2019-02-27T05:24:43.389Z,1018.35
2019-02-27T05:25:43.380Z,1018.33
2019-02-27T05:26:43.373Z,1018.36
2019-02-27T05:27:43.362Z,1018.39
2019-02-27T05:28:43.354Z,1018.34
2019-02-27T05:29:43.348Z,1018.34
2019-02-27T05:30:45.369Z,1018.34
2019-02-27T05:31:43.331Z,1018.43
2019-02-27T05:32:43.323Z,1018.42
2019-02-27T05:33:43.317Z,1018.42
2019-02-27T05:34:43.308Z,1018.43
2019-02-27T05:35:43.299Z,1018.42
2019-02-27T05:36:43.289Z,1018.38
2019-02-27T05:37:43.282Z,1018.42
2019-02-27T05:38:43.628Z,1018.44
2019-02-27T05:39:43.265Z,1018.48
2019-02-27T05:40:43.259Z,1018.50
2019-02-27T05:41:43.250Z,1018.50
2019-02-27T05:42:43.242Z,1018.46
2019-02-27T05:43:47.694Z,1018.45
2019-02-27T05:44:43.225Z,1018.44
2019-02-27T05:45:43.218Z,1018.44
2019-02-27T05:46:43.211Z,1018.46
2019-02-27T05:47:45.786Z,1018.42
2019-02-27T05:48:43.197Z,1018.41
2019-02-27T05:49:43.189Z,1018.36
2019-02-27T05:50:44.378Z,1018.36
2019-02-27T05:51:43.169Z,1018.34
2019-02-27T05:52:43.160Z,1018.29
2019-02-27T05:53:43.152Z,1018.29
2019-02-27T05:54:43.145Z,1018.29
2019-02-27T05:55:43.136Z,1018.29
2019-02-27T05:56:43.127Z,1018.28
2019-02-27T05:57:43.120Z,1018.30
2019-02-27T05:58:43.112Z,1018.25
2019-02-27T05:59:43.104Z,1018.24
2019-02-27T06:00:43.096Z,1018.26
2019-02-27T06:01:43.088Z,1018.23
2019-02-27T06:02:45.004Z,1018.26
2019-02-27T06:03:43.071Z,1018.22
2019-02-27T06:04:43.063Z,1018.29
2019-02-27T06:05:49.375Z,1018.30
2019-02-27T06:06:45.275Z,1018.29
2019-02-27T06:07:43.037Z,1018.35
2019-02-27T06:08:43.030Z,1018.30
2019-02-27T06:09:43.741Z,1018.29
2019-02-27T06:10:43.016Z,1018.29
2019-02-27T06:11:43.006Z,1018.26
2019-02-27T06:12:42.997Z,1018.24
2019-02-27T06:13:45.070Z,1018.18
2019-02-27T06:14:42.981Z,1018.18
2019-02-27T06:15:42.974Z,1018.13
2019-02-27T06:16:42.967Z,1018.11
2019-02-27T06:17:43.610Z,1018.11
2019-02-27T06:18:42.950Z,1018.07
2019-02-27T06:19:42.942Z,1018.04
2019-02-27T06:20:42.934Z,1018.07
2019-02-27T06:21:42.927Z,1018.02
2019-02-27T06:22:42.916Z,1018.02
2019-02-27T06:23:42.912Z,1017.97
2019-02-27T06:24:43.081Z,1018.00
2019-02-27T06:25:42.894Z,1017.95
2019-02-27T06:26:42.885Z,1017.96
2019-02-27T06:27:42.876Z,1017.96
2019-02-27T06:28:42.869Z,1017.98
2019-02-27T06:29:42.860Z,1017.94
2019-02-27T06:30:42.851Z,1017.94
2019-02-27T06:31:42.842Z,1017.96
2019-02-27T06:32:42.836Z,1017.94
2019-02-27T06:33:45.101Z,1017.96
2019-02-27T06:34:42.820Z,1018.00
2019-02-27T06:35:42.810Z,1018.00
2019-02-27T06:36:43.066Z,1017.98
2019-02-27T06:37:42.794Z,1017.96
2019-02-27T06:38:42.788Z,1017.97
2019-02-27T06:39:42.778Z,1017.98
2019-02-27T06:40:42.948Z,1017.99
2019-02-27T06:41:42.764Z,1017.95
2019-02-27T06:42:42.756Z,1017.95
2019-02-27T06:43:42.750Z,1017.95
2019-02-27T06:44:42.738Z,1017.93
2019-02-27T06:45:45.580Z,1017.94
2019-02-27T06:46:44.512Z,1017.95
2019-02-27T06:47:42.715Z,1017.91
2019-02-27T06:48:43.591Z,1017.97
2019-02-27T06:49:42.704Z,1017.99
2019-02-27T06:50:42.691Z,1017.96
2019-02-27T06:51:42.682Z,1017.95
2019-02-27T06:52:43.072Z,1017.97
2019-02-27T06:53:42.666Z,1017.98
2019-02-27T06:54:42.659Z,1017.91
2019-02-27T06:55:42.651Z,1017.92
2019-02-27T06:56:42.642Z,1017.95
2019-02-27T06:57:42.635Z,1017.95
2019-02-27T06:58:42.626Z,1017.91
2019-02-27T06:59:42.617Z,1017.90
2019-02-27T07:00:42.609Z,1017.90
2019-02-27T07:01:45.100Z,1017.87
2019-02-27T07:02:42.595Z,1017.87
2019-02-27T07:03:42.586Z,1017.85
2019-02-27T07:04:42.577Z,1017.85
2019-02-27T07:05:42.570Z,1017.85
2019-02-27T07:06:42.566Z,1017.82
2019-02-27T07:07:42.562Z,1017.82
2019-02-27T07:08:42.548Z,1017.83
2019-02-27T07:09:43.175Z,1017.85
2019-02-27T07:10:42.535Z,1017.82
2019-02-27T07:11:45.268Z,1017.83
2019-02-27T07:12:42.515Z,1017.82
2019-02-27T07:13:42.512Z,1017.87
2019-02-27T07:14:42.500Z,1017.87
2019-02-27T07:15:47.785Z,1017.84
2019-02-27T07:16:42.484Z,1017.85
2019-02-27T07:17:42.476Z,1017.87
2019-02-27T07:18:42.502Z,1017.87
2019-02-27T07:19:42.467Z,1017.88
2019-02-27T07:20:42.454Z,1017.87
2019-02-27T07:21:42.445Z,1017.88
2019-02-27T07:22:45.658Z,1017.88
2019-02-27T07:23:42.428Z,1017.87
2019-02-27T07:24:42.420Z,1017.94
2019-02-27T07:25:42.885Z,1017.88
2019-02-27T07:26:42.406Z,1017.89
2019-02-27T07:27:42.398Z,1017.89
2019-02-27T07:28:43.590Z,1017.92
2019-02-27T07:29:42.925Z,1017.89
2019-02-27T07:30:42.479Z,1017.93
2019-02-27T07:31:42.367Z,1018.01
2019-02-27T07:32:42.359Z,1017.95
2019-02-27T07:33:42.351Z,1017.96
2019-02-27T07:34:42.352Z,1017.97
2019-02-27T07:35:42.336Z,1017.96
2019-02-27T07:36:42.327Z,1017.98
2019-02-27T07:37:46.828Z,1018.02
2019-02-27T07:38:42.314Z,1017.94
2019-02-27T07:39:42.308Z,1017.98
2019-02-27T07:40:43.058Z,1018.01
2019-02-27T07:41:42.291Z,1017.97
2019-02-27T07:42:42.283Z,1017.97
2019-02-27T07:43:42.275Z,1017.92
2019-02-27T07:44:42.298Z,1017.94
2019-02-27T07:45:42.789Z,1017.93
2019-02-27T07:46:42.254Z,1017.92
2019-02-27T07:47:42.244Z,1017.92
2019-02-27T07:48:42.239Z,1017.92
2019-02-27T07:49:42.231Z,1017.89
2019-02-27T07:50:42.227Z,1017.91
2019-02-27T07:51:42.216Z,1017.88
2019-02-27T07:52:42.208Z,1017.91
2019-02-27T07:53:42.203Z,1017.90
2019-02-27T07:54:42.195Z,1017.89
2019-02-27T07:55:42.191Z,1017.86
2019-02-27T07:56:42.178Z,1017.92
2019-02-27T07:57:42.171Z,1017.91
2019-02-27T07:58:42.166Z,1017.88
2019-02-27T07:59:42.156Z,1017.94
2019-02-27T08:00:42.857Z,1017.86
2019-02-27T08:01:43.996Z,1017.85
2019-02-27T08:02:42.137Z,1017.85
2019-02-27T08:03:44.910Z,1017.84
2019-02-27T08:04:42.121Z,1017.85
2019-02-27T08:05:42.123Z,1017.91
2019-02-27T08:06:42.110Z,1017.90
2019-02-27T08:07:42.100Z,1017.93
2019-02-27T08:08:42.100Z,1018.01
2019-02-27T08:09:42.085Z,1017.95
2019-02-27T08:10:42.081Z,1017.97
2019-02-27T08:11:42.072Z,1018.02
2019-02-27T08:12:42.065Z,1017.99
2019-02-27T08:13:42.058Z,1018.00
2019-02-27T08:14:42.052Z,1017.99
2019-02-27T08:15:42.046Z,1018.00
2019-02-27T08:16:42.037Z,1017.99
2019-02-27T08:17:42.077Z,1017.99
2019-02-27T08:18:42.026Z,1018.03
2019-02-27T08:19:42.826Z,1018.03
2019-02-27T08:20:42.013Z,1017.99
2019-02-27T08:21:42.003Z,1017.98
2019-02-27T08:22:41.998Z,1018.00
2019-02-27T08:23:41.987Z,1017.98
2019-02-27T08:24:41.982Z,1017.98
2019-02-27T08:25:41.974Z,1018.01
2019-02-27T08:26:41.974Z,1018.00
2019-02-27T08:27:43.771Z,1018.00
2019-02-27T08:28:41.955Z,1018.03
2019-02-27T08:29:41.950Z,1017.99
2019-02-27T08:30:41.946Z,1017.98
2019-02-27T08:31:41.934Z,1017.92
2019-02-27T08:32:41.928Z,1017.93
2019-02-27T08:33:41.923Z,1017.88
2019-02-27T08:34:41.916Z,1017.88
2019-02-27T08:35:41.908Z,1017.86
2019-02-27T08:36:41.904Z,1017.88
2019-02-27T08:37:41.898Z,1017.84
2019-02-27T08:38:41.893Z,1017.80
2019-02-27T08:39:41.883Z,1017.76
2019-02-27T08:40:41.878Z,1017.77
2019-02-27T08:41:41.871Z,1017.77
2019-02-27T08:42:41.866Z,1017.71
2019-02-27T08:43:41.986Z,1017.73
2019-02-27T08:44:42.960Z,1017.68
2019-02-27T08:45:41.847Z,1017.67
2019-02-27T08:46:41.840Z,1017.66
2019-02-27T08:47:43.440Z,1017.66
2019-02-27T08:48:41.828Z,1017.71
2019-02-27T08:49:41.822Z,1017.77
2019-02-27T08:50:41.816Z,1017.76
2019-02-27T08:51:42.175Z,1017.70
2019-02-27T08:52:41.805Z,1017.72
2019-02-27T08:53:41.799Z,1017.72
2019-02-27T08:54:41.792Z,1017.66
2019-02-27T08:55:41.786Z,1017.69
2019-02-27T08:56:44.121Z,1017.65
2019-02-27T08:57:41.773Z,1017.67
2019-02-27T08:58:41.768Z,1017.67
2019-02-27T08:59:41.762Z,1017.68
2019-02-27T09:00:41.758Z,1017.69
2019-02-27T09:01:41.751Z,1017.65
2019-02-27T09:02:41.745Z,1017.67
2019-02-27T09:03:41.738Z,1017.67
2019-02-27T09:04:42.863Z,1017.67
2019-02-27T09:05:41.728Z,1017.65
2019-02-27T09:06:41.722Z,1017.71
2019-02-27T09:07:43.044Z,1017.69
2019-02-27T09:08:44.011Z,1017.68
2019-02-27T09:09:41.705Z,1017.67
2019-02-27T09:10:41.699Z,1017.68
2019-02-27T09:11:41.695Z,1017.68
2019-02-27T09:12:41.687Z,1017.75
2019-02-27T09:13:41.684Z,1017.78
2019-02-27T09:14:41.676Z,1017.77
2019-02-27T09:15:41.753Z,1017.74
2019-02-27T09:16:41.670Z,1017.79
2019-02-27T09:17:41.669Z,1017.81
2019-02-27T09:18:41.656Z,1017.75
2019-02-27T09:19:45.311Z,1017.73
2019-02-27T09:20:41.642Z,1017.72
2019-02-27T09:21:41.638Z,1017.76
2019-02-27T09:22:41.636Z,1017.76
2019-02-27T09:23:41.626Z,1017.76
2019-02-27T09:24:41.623Z,1017.79
2019-02-27T09:25:42.325Z,1017.80
2019-02-27T09:26:42.387Z,1017.75
2019-02-27T09:27:41.607Z,1017.77
2019-02-27T09:28:44.229Z,1017.74
2019-02-27T09:29:41.596Z,1017.70
2019-02-27T09:30:41.592Z,1017.71
2019-02-27T09:31:50.555Z,1017.65
2019-02-27T09:32:43.261Z,1017.60
2019-02-27T09:33:41.576Z,1017.62
2019-02-27T09:34:41.571Z,1017.57
2019-02-27T09:35:41.566Z,1017.56
2019-02-27T09:36:43.291Z,1017.55
2019-02-27T09:37:41.558Z,1017.58
2019-02-27T09:38:41.554Z,1017.57
2019-02-27T09:39:41.547Z,1017.54
2019-02-27T09:40:41.540Z,1017.57
2019-02-27T09:41:46.045Z,1017.55
2019-02-27T09:42:41.533Z,1017.55
2019-02-27T09:43:41.526Z,1017.50
2019-02-27T09:44:41.521Z,1017.52
2019-02-27T09:45:46.252Z,1017.52
2019-02-27T09:46:41.513Z,1017.73
2019-02-27T09:47:41.505Z,1018.08
2019-02-27T09:48:41.504Z,1018.38
2019-02-27T09:49:41.587Z,1018.47
2019-02-27T09:50:41.579Z,1018.48
2019-02-27T09:51:41.491Z,1018.44
2019-02-27T09:52:41.489Z,1018.51
2019-02-27T09:53:41.488Z,1018.51
2019-02-27T09:54:41.482Z,1018.52
2019-02-27T09:55:41.482Z,1018.53
2019-02-27T09:56:41.480Z,1018.56
2019-02-27T09:57:41.480Z,1018.60
2019-02-27T09:58:45.289Z,1018.64
2019-02-27T09:59:41.479Z,1018.61
2019-02-27T10:00:41.479Z,1018.62
2019-02-27T10:01:41.482Z,1018.61
2019-02-27T10:02:43.181Z,1018.57
2019-02-27T10:03:41.487Z,1018.56
2019-02-27T10:04:41.488Z,1018.58
2019-02-27T10:05:41.492Z,1018.62
2019-02-27T10:06:42.837Z,1018.57
2019-02-27T10:07:41.500Z,1018.54
2019-02-27T10:08:41.506Z,1018.56
2019-02-27T10:09:41.512Z,1018.56
2019-02-27T10:10:44.769Z,1018.49
2019-02-27T10:11:41.521Z,1018.46
2019-02-27T10:12:42.339Z,1018.49
2019-02-27T10:13:41.533Z,1018.51
2019-02-27T10:14:41.540Z,1018.47
2019-02-27T10:15:41.544Z,1018.47
2019-02-27T10:16:41.552Z,1018.55
2019-02-27T10:17:43.700Z,1018.48
2019-02-27T10:18:41.568Z,1018.44
2019-02-27T10:19:41.571Z,1018.46
2019-02-27T10:20:41.589Z,1018.45
2019-02-27T10:21:44.518Z,1018.43
2019-02-27T10:22:41.596Z,1018.41
2019-02-27T10:23:41.604Z,1018.41
2019-02-27T10:24:41.612Z,1018.39
2019-02-27T10:25:43.480Z,1018.40
2019-02-27T10:26:41.628Z,1018.40
2019-02-27T10:27:41.636Z,1018.42
2019-02-27T10:28:41.651Z,1018.40
2019-02-27T10:29:41.651Z,1018.37
2019-02-27T10:30:41.662Z,1018.34
2019-02-27T10:31:41.669Z,1018.37
2019-02-27T10:32:41.678Z,1018.29
2019-02-27T10:33:42.903Z,1018.19
2019-02-27T10:34:41.696Z,1018.15
2019-02-27T10:35:41.706Z,1018.21
2019-02-27T10:36:41.714Z,1018.21
2019-02-27T10:37:41.804Z,1018.17
2019-02-27T10:38:41.730Z,1018.11
2019-02-27T10:39:41.740Z,1018.05
2019-02-27T10:40:41.746Z,1017.90
2019-02-27T10:41:41.758Z,1017.89
2019-02-27T10:42:41.765Z,1017.95
2019-02-27T10:43:41.770Z,1017.92
2019-02-27T10:44:41.779Z,1017.86
2019-02-27T10:45:42.304Z,1017.83
2019-02-27T10:46:41.801Z,1017.76
2019-02-27T10:47:41.803Z,1017.67
2019-02-27T10:48:41.813Z,1017.73
2019-02-27T10:49:41.818Z,1017.65
2019-02-27T10:50:41.843Z,1017.47
2019-02-27T10:51:43.737Z,1017.49
2019-02-27T10:52:41.843Z,1017.43
2019-02-27T10:53:41.849Z,1017.37
2019-02-27T10:54:41.867Z,1017.41
2019-02-27T10:55:41.863Z,1017.42
2019-02-27T10:56:41.870Z,1017.47
2019-02-27T10:57:41.877Z,1017.42
2019-02-27T10:58:41.883Z,1017.43
2019-02-27T10:59:41.890Z,1017.57
2019-02-27T11:00:41.897Z,1017.48
2019-02-27T11:01:41.906Z,1017.40
2019-02-27T11:02:41.911Z,1017.36
2019-02-27T11:03:41.946Z,1017.41
2019-02-27T11:04:41.925Z,1017.39
2019-02-27T11:05:41.930Z,1017.34
2019-02-27T11:06:41.932Z,1017.39
2019-02-27T11:07:41.940Z,1017.39
2019-02-27T11:08:41.942Z,1017.45
2019-02-27T11:09:42.061Z,1017.55
2019-02-27T11:10:41.956Z,1017.58
2019-02-27T11:11:41.959Z,1017.49
2019-02-27T11:12:41.965Z,1017.55
2019-02-27T11:13:41.972Z,1017.55
2019-02-27T11:14:41.975Z,1017.24
2019-02-27T11:15:44.047Z,1017.11
2019-02-27T11:16:41.988Z,1017.18
2019-02-27T11:17:41.991Z,1017.20
2019-02-27T11:18:42.775Z,1017.23
2019-02-27T11:19:42.003Z,1017.18
2019-02-27T11:20:42.007Z,1017.23
2019-02-27T11:21:42.015Z,1017.18
2019-02-27T11:22:42.019Z,1017.08
2019-02-27T11:23:42.022Z,1017.10
2019-02-27T11:24:42.027Z,1017.15
2019-02-27T11:25:42.032Z,1017.17
2019-02-27T11:26:42.036Z,1017.12
2019-02-27T11:27:42.041Z,1016.98
2019-02-27T11:28:45.300Z,1016.90
2019-02-27T11:29:42.052Z,1016.84
2019-02-27T11:30:42.056Z,1016.77
2019-02-27T11:31:42.340Z,1016.84
2019-02-27T11:32:42.066Z,1016.80
2019-02-27T11:33:42.072Z,1016.79
2019-02-27T11:34:42.076Z,1016.65
2019-02-27T11:35:42.080Z,1016.66
2019-02-27T11:36:42.084Z,1016.71
2019-02-27T11:37:44.369Z,1016.73
2019-02-27T11:38:42.096Z,1016.70
2019-02-27T11:39:42.097Z,1016.58
2019-02-27T11:40:42.819Z,1016.43
2019-02-27T11:41:42.107Z,1016.46
2019-02-27T11:42:42.110Z,1016.57
2019-02-27T11:43:42.114Z,1016.64
2019-02-27T11:44:42.138Z,1016.65
2019-02-27T11:45:42.127Z,1016.60
2019-02-27T11:46:42.125Z,1016.65
2019-02-27T11:47:47.241Z,1016.68
2019-02-27T11:48:42.133Z,1016.53
2019-02-27T11:49:42.137Z,1016.52
2019-02-27T11:50:42.142Z,1016.57
2019-02-27T11:51:42.143Z,1016.51
2019-02-27T11:52:48.530Z,1016.52
2019-02-27T11:53:42.152Z,1016.59
2019-02-27T11:54:43.178Z,1016.48
2019-02-27T11:55:42.159Z,1016.42
2019-02-27T11:56:42.162Z,1016.31
2019-02-27T11:57:43.285Z,1016.17
2019-02-27T11:58:42.173Z,1016.12
2019-02-27T11:59:46.711Z,1016.07
2019-02-27T12:00:42.176Z,1016.11
2019-02-27T12:01:42.180Z,1016.14
2019-02-27T12:02:42.185Z,1016.15
2019-02-27T12:03:45.734Z,1016.11
2019-02-27T12:04:42.192Z,1016.03
2019-02-27T12:05:42.194Z,1016.00